createdAt,value
2018-06-16T00:00:36.536Z,100999.27
2018-06-16T00:03:05.343Z,101007.02
2018-06-16T00:05:34.129Z,101010.98
2018-06-16T00:08:02.909Z,101012.72
2018-06-16T00:10:31.749Z,101012.24
2018-06-16T00:13:00.544Z,101016.68
2018-06-16T00:15:29.355Z,100941.44
2018-06-16T00:17:58.220Z,101023.67
2018-06-16T00:20:27.180Z,101023.76
2018-06-16T00:22:55.970Z,101033.34
2018-06-16T00:25:24.794Z,101044.01
2018-06-16T00:27:53.558Z,101048.23
2018-06-16T00:30:22.330Z,101053.80
2018-06-16T00:32:51.085Z,101052.19
2018-06-16T00:35:19.870Z,101053.53
2018-06-16T00:37:48.676Z,101058.22
2018-06-16T00:40:17.459Z,101055.82
2018-06-16T00:42:46.284Z,101060.64
2018-06-16T00:45:15.118Z,101061.63
2018-06-16T00:47:43.943Z,101072.70
2018-06-16T00:50:12.722Z,101069.83
2018-06-16T00:52:41.491Z,101070.16
2018-06-16T00:55:10.285Z,101078.65
2018-06-16T00:57:45.964Z,101081.58
2018-06-16T01:00:15.446Z,101076.33
2018-06-16T01:02:44.250Z,101082.88
2018-06-16T01:05:13.090Z,101083.12
2018-06-16T01:07:41.846Z,101087.62
2018-06-16T01:10:11.562Z,101084.70
2018-06-16T01:12:40.594Z,101086.91
2018-06-16T01:15:09.422Z,101084.63
2018-06-16T01:17:38.194Z,101094.36
2018-06-16T01:20:07.006Z,101091.11
2018-06-16T01:22:36.157Z,101088.22
2018-06-16T01:25:05.197Z,101091.80
2018-06-16T01:27:34.016Z,101088.58
2018-06-16T01:30:02.835Z,101096.88
2018-06-16T01:32:31.607Z,101095.55
2018-06-16T01:35:00.394Z,101101.95
2018-06-16T01:37:29.158Z,101094.42
2018-06-16T01:39:57.927Z,101095.59
2018-06-16T01:42:26.690Z,101105.09
2018-06-16T01:44:55.453Z,101022.99
2018-06-16T01:47:24.230Z,101097.09
2018-06-16T01:49:53.014Z,101094.17
2018-06-16T01:52:21.857Z,101096.98
2018-06-16T01:54:50.641Z,101099.86
2018-06-16T01:57:19.411Z,101100.58
2018-06-16T01:59:48.157Z,101101.48
2018-06-16T02:02:16.921Z,101101.23
2018-06-16T02:04:45.738Z,101104.30
2018-06-16T02:07:14.553Z,101108.41
2018-06-16T02:09:43.329Z,101107.65
2018-06-16T02:12:12.161Z,101115.58
2018-06-16T02:14:40.957Z,101110.98
2018-06-16T02:17:09.777Z,101116.77
2018-06-16T02:19:38.554Z,101107.29
2018-06-16T02:22:07.498Z,101110.16
2018-06-16T02:24:36.286Z,101076.84
2018-06-16T02:27:05.162Z,101118.42
2018-06-16T02:29:33.977Z,101122.35
2018-06-16T02:32:02.738Z,101126.13
2018-06-16T02:34:31.501Z,101122.97
2018-06-16T02:37:00.329Z,101127.95
2018-06-16T02:39:29.968Z,101123.22
2018-06-16T02:41:58.753Z,101125.48
2018-06-16T02:44:27.518Z,101128.79
2018-06-16T02:46:56.282Z,101134.48
2018-06-16T02:49:25.045Z,101138.82
2018-06-16T02:51:53.837Z,101137.27
2018-06-16T02:54:22.630Z,101134.48
2018-06-16T02:56:51.418Z,101134.45
2018-06-16T02:59:20.238Z,101135.18
2018-06-16T03:01:49.052Z,101146.73
2018-06-16T03:04:17.814Z,101148.89
2018-06-16T03:06:46.566Z,101138.11
2018-06-16T03:09:15.341Z,101148.54
2018-06-16T03:11:44.155Z,101148.29
2018-06-16T03:14:13.090Z,101147.43
2018-06-16T03:16:41.911Z,101148.38
2018-06-16T03:19:10.662Z,101147.40
2018-06-16T03:21:39.705Z,101146.34
2018-06-16T03:24:08.526Z,101155.66
2018-06-16T03:26:37.294Z,101164.76
2018-06-16T03:29:06.090Z,101152.98
2018-06-16T03:31:34.852Z,101147.15
2018-06-16T03:34:03.694Z,101149.70
2018-06-16T03:36:32.473Z,101143.36
2018-06-16T03:39:01.234Z,101120.48
2018-06-16T03:41:30.014Z,101146.39
2018-06-16T03:43:58.802Z,101149.27
2018-06-16T03:46:27.574Z,101152.55
2018-06-16T03:48:56.382Z,101157.12
2018-06-16T03:51:25.142Z,101150.02
2018-06-16T03:53:53.906Z,101154.95
2018-06-16T03:56:22.670Z,101149.50
2018-06-16T03:58:51.453Z,101148.02
2018-06-16T04:01:20.214Z,101151.66
2018-06-16T04:03:48.978Z,101153.34
2018-06-16T04:06:17.773Z,101155.67
2018-06-16T04:08:46.595Z,101157.73
2018-06-16T04:11:15.377Z,101163.66
2018-06-16T04:13:44.143Z,101163.41
2018-06-16T04:16:12.929Z,101168.08
2018-06-16T04:18:41.703Z,101167.73
2018-06-16T04:21:10.522Z,101163.00
2018-06-16T04:23:39.295Z,101069.45
2018-06-16T04:26:08.046Z,101177.50
2018-06-16T04:28:36.848Z,101175.13
2018-06-16T04:31:05.655Z,101181.05
2018-06-16T04:33:34.421Z,101187.13
2018-06-16T04:36:03.208Z,101187.09
2018-06-16T04:38:32.007Z,101179.96
2018-06-16T04:41:00.813Z,101178.35
2018-06-16T04:43:29.642Z,101183.55
2018-06-16T04:45:58.478Z,101177.09
2018-06-16T04:48:27.260Z,101184.38
2018-06-16T04:50:56.037Z,101187.34
2018-06-16T04:53:24.804Z,101195.05
2018-06-16T04:55:53.570Z,101194.54
2018-06-16T04:58:22.358Z,101195.63
2018-06-16T05:00:51.118Z,101194.37
2018-06-16T05:03:19.885Z,101196.56
2018-06-16T05:05:48.835Z,101183.67
2018-06-16T05:08:17.596Z,101180.89
2018-06-16T05:10:46.438Z,101181.05
2018-06-16T05:13:15.377Z,101185.01
2018-06-16T05:15:44.197Z,101183.45
2018-06-16T05:18:12.985Z,101181.47
2018-06-16T05:20:41.753Z,101178.56
2018-06-16T05:23:10.618Z,101178.31
2018-06-16T05:25:39.407Z,101177.26
2018-06-16T05:28:08.198Z,101177.96
2018-06-16T05:30:37.001Z,101179.02
2018-06-16T05:33:05.881Z,101181.41
2018-06-16T05:35:34.686Z,101174.07
2018-06-16T05:38:03.576Z,101181.34
2018-06-16T05:40:32.346Z,101178.81
2018-06-16T05:43:01.134Z,101180.70
2018-06-16T05:45:29.922Z,101180.85
2018-06-16T05:47:58.691Z,101183.38
2018-06-16T05:50:27.535Z,101183.88
2018-06-16T05:52:56.617Z,101179.70
2018-06-16T05:55:26.310Z,101180.85
2018-06-16T05:57:55.895Z,101186.22
2018-06-16T06:00:25.558Z,101184.24
2018-06-16T06:02:54.738Z,101194.93
2018-06-16T06:05:23.798Z,101196.62
2018-06-16T06:07:52.612Z,101195.86
2018-06-16T06:10:21.453Z,101195.63
2018-06-16T06:12:50.237Z,101190.91
2018-06-16T06:15:19.015Z,101191.77
2018-06-16T06:17:47.970Z,101191.61
2018-06-16T06:20:16.802Z,101188.94
2018-06-16T06:22:46.046Z,101185.84
2018-06-16T06:25:15.092Z,101192.54
2018-06-16T06:27:44.020Z,101194.30
2018-06-16T06:30:12.875Z,101183.80
2018-06-16T06:32:41.685Z,101185.91
2018-06-16T06:35:10.511Z,101183.80
2018-06-16T06:37:39.436Z,101185.97
2018-06-16T06:40:08.682Z,101185.67
2018-06-16T06:42:38.226Z,101177.98
2018-06-16T06:45:07.479Z,101181.95
2018-06-16T06:47:36.595Z,101179.84
2018-06-16T06:50:06.566Z,101175.31
2018-06-16T06:52:35.888Z,101172.44
2018-06-16T06:55:04.700Z,101170.45
2018-06-16T06:57:33.879Z,101170.11
2018-06-16T07:00:02.744Z,101119.95
2018-06-16T07:02:31.546Z,101172.98
2018-06-16T07:05:00.403Z,101173.67
2018-06-16T07:07:29.201Z,101165.00
2018-06-16T07:09:58.037Z,101176.95
2018-06-16T07:12:27.329Z,101166.13
2018-06-16T07:14:56.101Z,101168.67
2018-06-16T07:17:25.513Z,101178.17
2018-06-16T07:19:54.401Z,101182.67
2018-06-16T07:22:23.358Z,101175.33
2018-06-16T07:24:52.263Z,101169.83
2018-06-16T07:27:21.409Z,101173.27
2018-06-16T07:29:50.204Z,101177.10
2018-06-16T07:32:19.001Z,101172.92
2018-06-16T07:34:47.794Z,101170.94
2018-06-16T07:37:16.628Z,101168.81
2018-06-16T07:39:45.921Z,101169.81
2018-06-16T07:42:14.987Z,101163.75
2018-06-16T07:44:43.986Z,101165.03
2018-06-16T07:47:13.020Z,101164.88
2018-06-16T07:49:41.900Z,101164.28
2018-06-16T07:52:10.696Z,101168.98
2018-06-16T07:54:39.470Z,101169.83
2018-06-16T07:57:08.306Z,101167.06
2018-06-16T07:59:37.628Z,101167.58
2018-06-16T08:02:06.514Z,101169.22
2018-06-16T08:04:36.039Z,101167.83
2018-06-16T08:07:05.727Z,101170.00
2018-06-16T08:09:34.771Z,101176.70
2018-06-16T08:12:03.929Z,101167.58
2018-06-16T08:14:32.790Z,101165.86
2018-06-16T08:17:01.554Z,101169.53
2018-06-16T08:19:30.364Z,101170.75
2018-06-16T08:21:59.199Z,101167.06
2018-06-16T08:24:28.678Z,101167.80
2018-06-16T08:26:57.620Z,101162.02
2018-06-16T08:29:26.369Z,101162.23
2018-06-16T08:31:55.938Z,101170.71
2018-06-16T08:34:24.814Z,101167.20
2018-06-16T08:36:53.809Z,101165.86
2018-06-16T08:39:22.566Z,101171.17
2018-06-16T08:41:51.394Z,101172.78
2018-06-16T08:44:20.248Z,101173.08
2018-06-16T08:46:49.479Z,101183.81
2018-06-16T08:49:18.588Z,101188.27
2018-06-16T08:51:48.089Z,101181.61
2018-06-16T08:54:23.509Z,101180.02
2018-06-16T08:56:52.279Z,101181.71
2018-06-16T08:59:21.128Z,101181.80
2018-06-16T09:01:50.065Z,101184.64
2018-06-16T09:04:20.057Z,101184.00
2018-06-16T09:06:49.062Z,101181.36
2018-06-16T09:09:19.223Z,101171.72
2018-06-16T09:11:49.177Z,101173.63
2018-06-16T09:14:18.239Z,101172.77
2018-06-16T09:16:47.042Z,101167.36
2018-06-16T09:19:15.813Z,101174.25
2018-06-16T09:21:44.628Z,101171.73
2018-06-16T09:24:13.434Z,101170.00
2018-06-16T09:26:42.298Z,100616.89
2018-06-16T09:29:11.557Z,101194.84
2018-06-16T09:31:40.727Z,101207.44
2018-06-16T09:34:10.007Z,101210.07
2018-06-16T09:36:39.408Z,101226.03
2018-06-16T09:39:10.700Z,101238.27
2018-06-16T09:41:40.078Z,101248.53
2018-06-16T09:44:09.640Z,101153.33
2018-06-16T09:46:38.559Z,101252.91
2018-06-16T09:49:07.451Z,101248.88
2018-06-16T09:51:36.632Z,101237.69
2018-06-16T09:54:05.517Z,101235.41
2018-06-16T09:56:34.324Z,101235.00
2018-06-16T09:59:03.109Z,101240.77
2018-06-16T10:01:31.910Z,101247.13
2018-06-16T10:04:00.682Z,101256.70
2018-06-16T10:06:29.502Z,101257.97
2018-06-16T10:08:58.793Z,101256.87
2018-06-16T10:11:28.408Z,101262.50
2018-06-16T10:13:58.018Z,101250.83
2018-06-16T10:16:27.085Z,101253.61
2018-06-16T10:18:55.986Z,101252.08
2018-06-16T10:21:24.801Z,101263.52
2018-06-16T10:23:53.617Z,101262.52
2018-06-16T10:26:22.385Z,101259.01
2018-06-16T10:28:51.374Z,101264.86
2018-06-16T10:31:20.282Z,101270.84
2018-06-16T10:33:49.879Z,101188.66
2018-06-16T10:36:21.230Z,101275.91
2018-06-16T10:38:50.499Z,101271.79
2018-06-16T10:41:19.421Z,101285.73
2018-06-16T10:43:48.216Z,101290.06
2018-06-16T10:46:17.018Z,101297.02
2018-06-16T10:48:45.833Z,101308.34
2018-06-16T10:51:14.617Z,101304.14
2018-06-16T10:53:43.401Z,101299.59
2018-06-16T10:56:12.210Z,101303.27
2018-06-16T10:58:40.965Z,101297.86
2018-06-16T11:01:09.746Z,101304.49
2018-06-16T11:03:38.523Z,101303.20
2018-06-16T11:06:07.294Z,101310.38
2018-06-16T11:08:36.093Z,101312.29
2018-06-16T11:11:04.862Z,101311.13
2018-06-16T11:13:33.624Z,101308.72
2018-06-16T11:16:02.371Z,101307.86
2018-06-16T11:18:31.102Z,101306.68
2018-06-16T11:20:59.904Z,101313.73
2018-06-16T11:23:28.639Z,101320.88
2018-06-16T11:25:57.427Z,101313.98
2018-06-16T11:28:26.220Z,101315.69
2018-06-16T11:30:55.027Z,101314.58
2018-06-16T11:33:23.807Z,101318.53
2018-06-16T11:35:52.689Z,101314.11
2018-06-16T11:38:21.458Z,101316.45
2018-06-16T11:40:50.320Z,101314.70
2018-06-16T11:43:19.034Z,101317.78
2018-06-16T11:45:47.794Z,101322.11
2018-06-16T11:48:16.565Z,101311.72
2018-06-16T11:50:45.368Z,101313.87
2018-06-16T11:53:14.189Z,101313.70
2018-06-16T11:55:42.987Z,101310.55
2018-06-16T11:58:11.776Z,101311.30
2018-06-16T12:00:40.581Z,101321.91
2018-06-16T12:03:09.430Z,101315.72
2018-06-16T12:05:38.238Z,101321.55
2018-06-16T12:08:07.054Z,101326.28
2018-06-16T12:10:35.847Z,101329.28
2018-06-16T12:13:04.658Z,101321.16
2018-06-16T12:15:33.410Z,101316.90
2018-06-16T12:18:02.196Z,101320.93
2018-06-16T12:20:30.966Z,101321.91
2018-06-16T12:22:59.799Z,101315.09
2018-06-16T12:25:28.573Z,101320.81
2018-06-16T12:27:57.321Z,101312.70
2018-06-16T12:30:26.182Z,101315.69
2018-06-16T12:32:54.949Z,101319.23
2018-06-16T12:35:23.747Z,101321.23
2018-06-16T12:37:52.576Z,101320.58
2018-06-16T12:40:21.337Z,101240.47
2018-06-16T12:42:50.094Z,101321.41
2018-06-16T12:45:18.841Z,101317.03
2018-06-16T12:47:47.616Z,101319.33
2018-06-16T12:50:16.381Z,101011.09
2018-06-16T12:52:45.138Z,101321.09
2018-06-16T12:55:13.899Z,101322.09
2018-06-16T12:57:42.666Z,101319.91
2018-06-16T13:00:11.463Z,101321.16
2018-06-16T13:02:40.263Z,101327.70
2018-06-16T13:05:09.200Z,101333.83
2018-06-16T13:07:37.998Z,101332.40
2018-06-16T13:10:06.762Z,101325.39
2018-06-16T13:12:35.529Z,101323.45
2018-06-16T13:15:04.344Z,101319.03
2018-06-16T13:17:33.472Z,101319.13
2018-06-16T13:20:02.257Z,101317.78
2018-06-16T13:22:31.125Z,101311.58
2018-06-16T13:25:00.153Z,101315.91
2018-06-16T13:27:29.255Z,101313.41
2018-06-16T13:29:58.269Z,101308.68
2018-06-16T13:32:27.298Z,101312.06
2018-06-16T13:34:56.322Z,101311.06
2018-06-16T13:37:25.379Z,101314.39
2018-06-16T13:39:54.459Z,101301.87
2018-06-16T13:42:23.502Z,101306.69
2018-06-16T13:44:52.745Z,101310.58
2018-06-16T13:47:21.534Z,101307.03
2018-06-16T13:49:50.324Z,101317.13
2018-06-16T13:52:19.283Z,101313.84
2018-06-16T13:54:48.061Z,101314.58
2018-06-16T13:57:16.837Z,101305.87
2018-06-16T13:59:45.614Z,101310.42
2018-06-16T14:02:14.361Z,101310.77
2018-06-16T14:04:43.164Z,101321.22
2018-06-16T14:07:11.999Z,101310.38
2018-06-16T14:09:40.871Z,101309.47
2018-06-16T14:12:09.681Z,101307.91
2018-06-16T14:14:38.461Z,101313.41
2018-06-16T14:17:07.247Z,101311.89
2018-06-16T14:19:36.041Z,101317.53
2018-06-16T14:22:04.828Z,101319.22
2018-06-16T14:24:33.661Z,101312.16
2018-06-16T14:27:02.498Z,101317.31
2018-06-16T14:29:31.300Z,101315.84
2018-06-16T14:32:00.103Z,101306.09
2018-06-16T14:34:28.929Z,101309.13
2018-06-16T14:36:57.706Z,101310.08
2018-06-16T14:39:26.470Z,101311.37
2018-06-16T14:41:55.281Z,101322.77
2018-06-16T14:44:24.050Z,101314.36
2018-06-16T14:46:52.869Z,101324.77
2018-06-16T14:49:21.672Z,101320.78
2018-06-16T14:51:50.456Z,101320.48
2018-06-16T14:54:19.273Z,101324.50
2018-06-16T14:56:48.107Z,101327.93
2018-06-16T14:59:17.073Z,101328.97
2018-06-16T15:01:45.850Z,101331.05
2018-06-16T15:04:14.622Z,101328.08
2018-06-16T15:06:43.458Z,101337.51
2018-06-16T15:09:12.710Z,101337.51
2018-06-16T15:11:41.589Z,101336.33
2018-06-16T15:14:10.371Z,101335.27
2018-06-16T15:16:39.150Z,101343.17
2018-06-16T15:19:07.953Z,101344.20
2018-06-16T15:21:36.779Z,101346.97
2018-06-16T15:24:05.598Z,101347.36
2018-06-16T15:26:34.401Z,101348.64
2018-06-16T15:29:03.224Z,101352.70
2018-06-16T15:31:32.006Z,101357.26
2018-06-16T15:34:00.795Z,101358.39
2018-06-16T15:36:29.775Z,101305.79
2018-06-16T15:38:58.662Z,101351.95
2018-06-16T15:41:27.497Z,101354.28
2018-06-16T15:43:56.308Z,101351.08
2018-06-16T15:46:25.113Z,101354.24
2018-06-16T15:48:53.951Z,101357.92
2018-06-16T15:51:22.753Z,101359.27
2018-06-16T15:53:51.853Z,101371.02
2018-06-16T15:56:20.830Z,101365.64
2018-06-16T15:58:49.594Z,101359.88
2018-06-16T16:01:18.382Z,101363.86
2018-06-16T16:03:47.201Z,101364.86
2018-06-16T16:06:16.248Z,101368.23
2018-06-16T16:08:45.102Z,101367.75
2018-06-16T16:11:13.930Z,101369.41
2018-06-16T16:13:43.111Z,101364.03
2018-06-16T16:16:11.895Z,101365.11
2018-06-16T16:18:40.677Z,101361.21
2018-06-16T16:21:09.620Z,101359.88
2018-06-16T16:23:38.474Z,101368.58
2018-06-16T16:26:07.435Z,101361.86
2018-06-16T16:28:36.682Z,101366.70
2018-06-16T16:31:06.618Z,101370.69
2018-06-16T16:33:35.672Z,101375.50
2018-06-16T16:36:04.627Z,101367.73
2018-06-16T16:38:33.506Z,101368.52
2018-06-16T16:41:02.347Z,101369.11
2018-06-16T16:43:31.194Z,101370.67
2018-06-16T16:46:00.034Z,101380.06
2018-06-16T16:48:28.894Z,101378.62
2018-06-16T16:50:57.680Z,101382.24
2018-06-16T16:53:26.737Z,101382.75
2018-06-16T16:55:55.589Z,101383.45
2018-06-16T16:58:24.389Z,101386.02
2018-06-16T17:00:53.244Z,101393.47
2018-06-16T17:03:22.030Z,101394.73
2018-06-16T17:05:51.018Z,101396.28
2018-06-16T17:08:19.803Z,101396.94
2018-06-16T17:10:48.613Z,101397.36
2018-06-16T17:13:17.479Z,101393.33
2018-06-16T17:15:46.386Z,101392.98
2018-06-16T17:18:15.203Z,101393.50
2018-06-16T17:20:44.031Z,101390.30
2018-06-16T17:23:12.887Z,101390.94
2018-06-16T17:25:41.715Z,101395.73
2018-06-16T17:28:10.470Z,101400.93
2018-06-16T17:30:39.242Z,101408.64
2018-06-16T17:33:08.070Z,101404.33
2018-06-16T17:35:36.966Z,101406.97
2018-06-16T17:38:05.949Z,101402.59
2018-06-16T17:40:34.795Z,101401.52
2018-06-16T17:43:03.798Z,101404.42
2018-06-16T17:45:32.629Z,101400.23
2018-06-16T17:48:01.422Z,101400.53
2018-06-16T17:50:30.388Z,101401.92
2018-06-16T17:52:59.176Z,101404.13
2018-06-16T17:55:27.969Z,101407.46
2018-06-16T17:57:56.944Z,101402.44
2018-06-16T18:00:25.769Z,101405.84
2018-06-16T18:02:54.565Z,101411.86
2018-06-16T18:05:23.514Z,101414.91
2018-06-16T18:07:52.302Z,101417.81
2018-06-16T18:10:21.077Z,101414.72
2018-06-16T18:12:49.874Z,101416.70
2018-06-16T18:15:18.697Z,101416.53
2018-06-16T18:17:47.597Z,101415.93
2018-06-16T18:20:16.375Z,101416.31
2018-06-16T18:22:45.214Z,101419.13
2018-06-16T18:25:14.017Z,101201.13
2018-06-16T18:27:42.793Z,101432.61
2018-06-16T18:30:11.595Z,101428.47
2018-06-16T18:32:40.387Z,101428.69
2018-06-16T18:35:09.235Z,101428.20
2018-06-16T18:37:38.091Z,101437.88
2018-06-16T18:40:06.986Z,101437.11
2018-06-16T18:42:35.842Z,101439.69
2018-06-16T18:45:04.790Z,101448.94
2018-06-16T18:47:33.569Z,101449.58
2018-06-16T18:50:02.419Z,101446.89
2018-06-16T18:52:31.171Z,101447.53
2018-06-16T18:54:59.963Z,101437.02
2018-06-16T18:57:28.737Z,101447.89
2018-06-16T18:59:57.512Z,101444.20
2018-06-16T19:02:26.283Z,101445.59
2018-06-16T19:04:55.062Z,101444.88
2018-06-16T19:07:23.878Z,101453.09
2018-06-16T19:09:52.966Z,101446.00
2018-06-16T19:12:21.772Z,101456.88
2018-06-16T19:14:50.797Z,101458.34
2018-06-16T19:17:19.577Z,101452.19
2018-06-16T19:19:48.611Z,101456.56
2018-06-16T19:22:17.482Z,101456.84
2018-06-16T19:24:46.334Z,101454.00
2018-06-16T19:27:15.270Z,101457.31
2018-06-16T19:29:44.051Z,101466.28
2018-06-16T19:32:12.829Z,101473.28
2018-06-16T19:34:41.570Z,101468.20
2018-06-16T19:37:10.426Z,101468.83
2018-06-16T19:39:39.193Z,101475.38
2018-06-16T19:42:07.958Z,101471.15
2018-06-16T19:44:36.769Z,101473.86
2018-06-16T19:47:05.700Z,101477.56
2018-06-16T19:49:34.470Z,101486.42
2018-06-16T19:52:03.287Z,101478.28
2018-06-16T19:54:32.062Z,101477.69
2018-06-16T19:57:00.825Z,101399.51
2018-06-16T19:59:29.613Z,101484.27
2018-06-16T20:01:58.414Z,101490.44
2018-06-16T20:04:27.191Z,101486.57
2018-06-16T20:06:55.957Z,101487.81
2018-06-16T20:09:24.783Z,101490.34
2018-06-16T20:11:53.619Z,101485.33
2018-06-16T20:14:22.424Z,101485.31
2018-06-16T20:16:51.194Z,101491.02
2018-06-16T20:19:19.970Z,101493.58
2018-06-16T20:21:48.769Z,101492.90
2018-06-16T20:24:17.561Z,101494.58
2018-06-16T20:26:46.377Z,101492.96
2018-06-16T20:29:15.217Z,101495.53
2018-06-16T20:31:43.996Z,101499.21
2018-06-16T20:34:12.783Z,101501.68
2018-06-16T20:36:41.830Z,101504.92
2018-06-16T20:39:10.615Z,101498.85
2018-06-16T20:41:39.617Z,101509.80
2018-06-16T20:44:08.490Z,101508.58
2018-06-16T20:46:37.282Z,101511.14
2018-06-16T20:49:06.371Z,101503.73
2018-06-16T20:51:35.334Z,101503.99
2018-06-16T20:54:04.226Z,101507.28
2018-06-16T20:56:33.060Z,101509.13
2018-06-16T20:59:02.387Z,101510.62
2018-06-16T21:01:31.178Z,101507.84
2018-06-16T21:03:59.981Z,101517.30
2018-06-16T21:06:35.210Z,101516.47
2018-06-16T21:09:05.640Z,101512.56
2018-06-16T21:11:34.424Z,101515.49
2018-06-16T21:14:03.249Z,101510.15
2018-06-16T21:16:32.053Z,101515.23
2018-06-16T21:19:00.821Z,101510.88
2018-06-16T21:21:29.946Z,101511.95
2018-06-16T21:23:58.718Z,101514.27
2018-06-16T21:26:27.703Z,101516.83
2018-06-16T21:28:56.517Z,101528.64
2018-06-16T21:31:25.281Z,101529.35
2018-06-16T21:33:54.550Z,101530.34
2018-06-16T21:36:23.497Z,101527.42
2018-06-16T21:38:52.443Z,101527.16
2018-06-16T21:41:21.261Z,101530.70
2018-06-16T21:43:50.117Z,101532.53
2018-06-16T21:46:18.936Z,101531.05
2018-06-16T21:48:47.702Z,101536.14
2018-06-16T21:51:16.513Z,101539.75
2018-06-16T21:53:45.329Z,101543.45
2018-06-16T21:56:14.201Z,101545.37
2018-06-16T21:58:42.997Z,101549.09
2018-06-16T22:01:11.810Z,101561.43
2018-06-16T22:03:40.598Z,101552.38
2018-06-16T22:06:09.390Z,101557.36
2018-06-16T22:08:38.477Z,101551.92
2018-06-16T22:11:07.709Z,101551.55
2018-06-16T22:13:36.599Z,101562.39
2018-06-16T22:16:05.404Z,101560.30
2018-06-16T22:18:34.390Z,101552.80
2018-06-16T22:21:03.277Z,101559.55
2018-06-16T22:23:32.973Z,101555.94
2018-06-16T22:26:01.809Z,101553.45
2018-06-16T22:28:30.643Z,101559.72
2018-06-16T22:30:59.641Z,101558.62
2018-06-16T22:33:28.529Z,101558.86
2018-06-16T22:35:57.345Z,101556.42
2018-06-16T22:38:26.167Z,101556.96
2018-06-16T22:40:54.964Z,101559.28
2018-06-16T22:43:24.053Z,101558.45
2018-06-16T22:45:52.892Z,101562.13
2018-06-16T22:48:21.917Z,101562.91
2018-06-16T22:50:50.760Z,101559.74
2018-06-16T22:53:19.554Z,101563.03
2018-06-16T22:55:48.536Z,101559.47
2018-06-16T22:58:17.334Z,101556.13
2018-06-16T23:00:46.086Z,101562.49
2018-06-16T23:03:14.869Z,101556.66
2018-06-16T23:05:43.662Z,101551.84
2018-06-16T23:08:12.452Z,101553.56
2018-06-16T23:10:41.236Z,101551.23
2018-06-16T23:13:10.122Z,101550.66
2018-06-16T23:15:38.934Z,101555.71
2018-06-16T23:18:07.754Z,101558.36
2018-06-16T23:20:36.566Z,101559.92
2018-06-16T23:23:05.334Z,101559.24
2018-06-16T23:25:34.110Z,101564.08
2018-06-16T23:28:02.945Z,101559.98
2018-06-16T23:30:31.703Z,101556.80
2018-06-16T23:33:00.477Z,101562.49
2018-06-16T23:35:29.270Z,101565.53
2018-06-16T23:37:58.189Z,101561.12
2018-06-16T23:40:27.101Z,101577.13
2018-06-16T23:42:55.895Z,101572.18
2018-06-16T23:45:24.670Z,101565.36
2018-06-16T23:47:53.481Z,101566.64
2018-06-16T23:50:22.292Z,101571.54
2018-06-16T23:52:51.045Z,101571.86
2018-06-16T23:55:19.817Z,101575.48
2018-06-16T23:57:48.621Z,101568.80
